Time;durP1;ratioP1;P1;durP2;ratioP2;P2;SDS_P1;SDS_P2;PMS_P1;PMS_P2;Temp;Humidity;BMP_temperature;BMP_pressure;BME280_temperature;BME280_humidity;BME280_pressure;Samples;Min_cycle;Max_cycle;Signal;HPM_P1;HPM_P2
2023/03/12 00:00:10;;;;;;;;;;;8.80;75.10;;;;;;5008263;28;88848;-39
2023/03/12 00:02:35;;;;;;;;;;;8.80;75.30;;;;;;5003624;28;89564;-39
2023/03/12 00:05:01;;;;;;;;;;;8.80;75.10;;;;;;5015943;28;86470;-38
2023/03/12 00:07:26;;;;;;;;;;;8.80;75.10;;;;;;5004035;28;89113;-38
2023/03/12 00:09:52;;;;;;;;;;;8.80;75.30;;;;;;5014152;28;88540;-38
2023/03/12 00:12:17;;;;;;;;;;;8.80;75.20;;;;;;5016685;28;88137;-39
2023/03/12 00:14:43;;;;;;;;;;;8.80;75.30;;;;;;5022878;28;88317;-39
2023/03/12 00:17:08;;;;;;;;;;;8.80;75.30;;;;;;5017290;28;89689;-39
2023/03/12 00:19:34;;;;;;;;;;;8.80;75.40;;;;;;5020183;28;87183;-38
2023/03/12 00:21:59;;;;;;;;;;;8.80;75.40;;;;;;5003306;28;88403;-38
2023/03/12 00:24:25;;;;;;;;;;;8.70;75.10;;;;;;5007783;28;87217;-38
2023/03/12 00:26:50;;;;;;;;;;;8.70;75.30;;;;;;5017901;28;87828;-39
2023/03/12 00:29:16;;;;;;;;;;;8.70;75.20;;;;;;5017434;28;88970;-38
2023/03/12 00:31:41;;;;;;;;;;;8.70;75.30;;;;;;5019775;28;87179;-38
2023/03/12 00:34:07;;;;;;;;;;;8.70;75.40;;;;;;5017094;28;88547;-39
2023/03/12 00:36:33;;;;;;;;;;;8.70;75.30;;;;;;5014691;28;90434;-39
2023/03/12 00:38:59;;;;;;;;;;;8.60;75.30;;;;;;5006633;28;87353;-38
2023/03/12 00:41:25;;;;;;;;;;;8.60;75.20;;;;;;5019088;28;87733;-39
2023/03/12 00:43:51;;;;;;;;;;;8.60;75.30;;;;;;5012629;28;87086;-38
2023/03/12 00:46:17;;;;;;;;;;;8.60;75.20;;;;;;5003429;28;87863;-39
2023/03/12 00:48:42;;;;;;;;;;;8.50;75.00;;;;;;5002744;28;89308;-38
2023/03/12 00:51:09;;;;;;;;;;;8.60;75.30;;;;;;5003302;28;87776;-39
2023/03/12 00:53:35;;;;;;;;;;;8.50;74.90;;;;;;5003551;28;88912;-38
2023/03/12 00:56:01;;;;;;;;;;;8.50;75.00;;;;;;5002554;28;89623;-38
2023/03/12 00:58:26;;;;;;;;;;;8.50;75.00;;;;;;5003354;28;87061;-38
2023/03/12 01:00:52;;;;;;;;;;;8.50;74.80;;;;;;5002625;28;88839;-38
2023/03/12 01:03:17;;;;;;;;;;;8.50;74.70;;;;;;5005705;28;88420;-38
2023/03/12 01:05:43;;;;;;;;;;;8.50;74.80;;;;;;5002958;28;88877;-38
2023/03/12 01:08:09;;;;;;;;;;;8.50;74.80;;;;;;5002891;28;89189;-38
2023/03/12 01:10:35;;;;;;;;;;;8.50;74.90;;;;;;5002461;28;87273;-38
2023/03/12 01:13:01;;;;;;;;;;;8.50;74.90;;;;;;5019032;28;88752;-38
2023/03/12 01:15:27;;;;;;;;;;;8.50;74.70;;;;;;5002605;28;87943;-38
2023/03/12 01:17:52;;;;;;;;;;;8.40;74.80;;;;;;5003429;28;86398;-38
2023/03/12 01:20:18;;;;;;;;;;;8.40;74.90;;;;;;5016028;28;88245;-38
2023/03/12 01:22:43;;;;;;;;;;;8.40;74.90;;;;;;5019018;28;88288;-38
2023/03/12 01:25:09;;;;;;;;;;;8.40;74.80;;;;;;5021424;28;88044;-38
2023/03/12 01:27:35;;;;;;;;;;;8.40;74.90;;;;;;5017608;28;89443;-38
2023/03/12 01:30:02;;;;;;;;;;;8.40;74.90;;;;;;5017959;28;87139;-38
2023/03/12 01:32:27;;;;;;;;;;;8.40;74.80;;;;;;5003322;28;88906;-38
2023/03/12 01:34:53;;;;;;;;;;;8.30;75.00;;;;;;5002119;28;89527;-38
2023/03/12 01:37:18;;;;;;;;;;;8.30;74.90;;;;;;5002299;28;87197;-38
2023/03/12 01:39:44;;;;;;;;;;;8.30;74.80;;;;;;5006439;28;87379;-39
2023/03/12 01:42:09;;;;;;;;;;;8.30;75.00;;;;;;5003402;28;88816;-38
2023/03/12 01:45:04;;;;;;;;;;;8.30;74.90;;;;;;5020531;28;87976;-38
2023/03/12 01:47:32;;;;;;;;;;;8.30;74.90;;;;;;4997642;28;88582;-38
2023/03/12 01:49:59;;;;;;;;;;;8.30;74.90;;;;;;5013659;28;88164;-38
2023/03/12 01:52:27;;;;;;;;;;;8.20;74.80;;;;;;5012837;28;89472;-38
2023/03/12 01:55:05;;;;;;;;;;;8.20;74.70;;;;;;5001803;28;89493;-38
2023/03/12 01:57:41;;;;;;;;;;;8.20;74.60;;;;;;5018634;28;87820;-38
2023/03/12 02:00:08;;;;;;;;;;;8.20;74.60;;;;;;5018313;28;87973;-38
2023/03/12 02:02:34;;;;;;;;;;;8.20;74.80;;;;;;5018090;28;90314;-38
2023/03/12 02:05:18;;;;;;;;;;;8.20;74.70;;;;;;5018812;28;87571;-38
2023/03/12 02:07:43;;;;;;;;;;;8.10;74.80;;;;;;5019399;28;88751;-38
2023/03/12 02:10:09;;;;;;;;;;;8.10;74.70;;;;;;5016147;28;87248;-39
2023/03/12 02:12:35;;;;;;;;;;;8.20;74.80;;;;;;5016202;28;88776;-38
2023/03/12 02:15:01;;;;;;;;;;;8.10;74.50;;;;;;5016994;28;90473;-38
2023/03/12 02:17:26;;;;;;;;;;;8.10;74.60;;;;;;5017308;28;87154;-38
2023/03/12 02:19:54;;;;;;;;;;;8.10;74.50;;;;;;5018581;28;87591;-38
2023/03/12 02:22:21;;;;;;;;;;;8.10;74.60;;;;;;5003365;28;89762;-38
2023/03/12 02:25:02;;;;;;;;;;;8.10;74.40;;;;;;5011530;28;87192;-38
2023/03/12 02:27:30;;;;;;;;;;;8.00;74.40;;;;;;5020018;28;88590;-39
2023/03/12 02:29:55;;;;;;;;;;;8.00;74.30;;;;;;5025041;28;87970;-39
2023/03/12 02:32:26;;;;;;;;;;;8.00;74.40;;;;;;5022378;28;88784;-38
2023/03/12 02:34:52;;;;;;;;;;;8.00;74.20;;;;;;5020077;28;90138;-39
2023/03/12 02:37:17;;;;;;;;;;;8.00;74.20;;;;;;5023767;28;87185;-38
2023/03/12 02:39:45;;;;;;;;;;;8.00;74.10;;;;;;5020623;28;88946;-38
2023/03/12 02:42:11;;;;;;;;;;;7.90;74.00;;;;;;5004919;28;88060;-38
2023/03/12 02:44:36;;;;;;;;;;;7.90;74.10;;;;;;5005486;28;87510;-38
2023/03/12 02:47:02;;;;;;;;;;;7.90;74.20;;;;;;5022529;28;88655;-38
2023/03/12 02:49:29;;;;;;;;;;;7.90;74.00;;;;;;5018275;28;88168;-38
2023/03/12 02:51:55;;;;;;;;;;;7.90;74.20;;;;;;5025123;28;87194;-38
2023/03/12 02:54:21;;;;;;;;;;;7.90;74.10;;;;;;5019430;28;89440;-38
2023/03/12 02:56:47;;;;;;;;;;;7.90;73.90;;;;;;5020009;28;86227;-38
2023/03/12 02:59:13;;;;;;;;;;;7.80;73.90;;;;;;5005200;28;88581;-38
2023/03/12 03:01:39;;;;;;;;;;;7.80;73.90;;;;;;5004672;28;89573;-38
2023/03/12 03:04:05;;;;;;;;;;;7.80;74.00;;;;;;5004278;28;88071;-38
2023/03/12 03:06:31;;;;;;;;;;;7.80;74.00;;;;;;5004963;28;89719;-38
2023/03/12 03:08:57;;;;;;;;;;;7.80;74.00;;;;;;5004485;28;89183;-38
2023/03/12 03:11:23;;;;;;;;;;;7.80;74.00;;;;;;5004834;28;88075;-38
2023/03/12 03:13:52;;;;;;;;;;;7.70;73.90;;;;;;5014193;28;88663;-38
2023/03/12 03:16:18;;;;;;;;;;;7.70;73.50;;;;;;5021373;28;87722;-39
2023/03/12 03:18:44;;;;;;;;;;;7.70;73.80;;;;;;5022605;28;87423;-39
2023/03/12 03:21:13;;;;;;;;;;;7.70;73.80;;;;;;5004644;28;88939;-38
2023/03/12 03:23:38;;;;;;;;;;;7.70;73.90;;;;;;5004503;28;87099;-39
2023/03/12 03:26:04;;;;;;;;;;;7.70;74.30;;;;;;5004089;28;89068;-38
2023/03/12 03:28:29;;;;;;;;;;;7.70;73.60;;;;;;5003106;28;90444;-38
2023/03/12 03:31:00;;;;;;;;;;;7.70;73.90;;;;;;5004598;28;87700;-38
2023/03/12 03:33:26;;;;;;;;;;;7.60;73.80;;;;;;5004038;28;88777;-38
2023/03/12 03:35:54;;;;;;;;;;;7.60;73.70;;;;;;5006785;28;89318;-38
2023/03/12 03:38:20;;;;;;;;;;;7.60;73.80;;;;;;5019210;28;88891;-38
2023/03/12 03:40:45;;;;;;;;;;;7.60;73.70;;;;;;5019167;28;88081;-38
2023/03/12 03:43:11;;;;;;;;;;;7.60;73.80;;;;;;5020099;28;87881;-39
2023/03/12 03:45:37;;;;;;;;;;;7.60;73.60;;;;;;5009380;28;87806;-38
2023/03/12 03:48:02;;;;;;;;;;;7.60;73.70;;;;;;5008979;28;89249;-38
2023/03/12 03:50:28;;;;;;;;;;;7.60;73.80;;;;;;5018542;28;87108;-38
2023/03/12 03:52:53;;;;;;;;;;;7.50;73.70;;;;;;5003419;28;88517;-38
2023/03/12 03:55:19;;;;;;;;;;;7.50;73.60;;;;;;5008621;28;89377;-38
2023/03/12 03:57:44;;;;;;;;;;;7.50;73.80;;;;;;5019690;28;87900;-38
2023/03/12 04:00:11;;;;;;;;;;;7.50;73.80;;;;;;5015307;28;88966;-38
2023/03/12 04:02:37;;;;;;;;;;;7.50;73.90;;;;;;5004224;28;87859;-38
2023/03/12 04:05:03;;;;;;;;;;;7.50;73.80;;;;;;5004133;28;88872;-39
2023/03/12 04:07:29;;;;;;;;;;;7.40;73.80;;;;;;5003446;28;89361;-38
2023/03/12 04:09:56;;;;;;;;;;;7.50;73.90;;;;;;5004301;28;86375;-38
2023/03/12 04:12:24;;;;;;;;;;;7.40;74.00;;;;;;5003900;28;88309;-38
2023/03/12 04:14:50;;;;;;;;;;;7.40;73.80;;;;;;5003299;28;89464;-38
2023/03/12 04:17:16;;;;;;;;;;;7.40;73.80;;;;;;5005904;28;88074;-39
2023/03/12 04:19:41;;;;;;;;;;;7.40;74.40;;;;;;5003261;28;89908;-39
2023/03/12 04:22:07;;;;;;;;;;;7.40;73.90;;;;;;5003426;28;87250;-38
2023/03/12 04:24:32;;;;;;;;;;;7.40;73.90;;;;;;5003602;28;87732;-38
2023/03/12 04:26:58;;;;;;;;;;;7.40;73.90;;;;;;5002486;28;88531;-38
2023/03/12 04:29:24;;;;;;;;;;;7.30;73.90;;;;;;5003478;28;87117;-38
2023/03/12 04:31:49;;;;;;;;;;;7.30;73.90;;;;;;5003840;28;88919;-38
2023/03/12 04:34:15;;;;;;;;;;;7.30;73.80;;;;;;5003694;28;88768;-38
2023/03/12 04:36:40;;;;;;;;;;;7.30;73.90;;;;;;5003973;28;87181;-39
2023/03/12 04:39:06;;;;;;;;;;;7.30;73.80;;;;;;5020202;28;89271;-38
2023/03/12 04:41:32;;;;;;;;;;;7.30;73.80;;;;;;5002808;28;88050;-38
2023/03/12 04:43:57;;;;;;;;;;;7.20;73.70;;;;;;5011620;28;89856;-39
2023/03/12 04:46:23;;;;;;;;;;;7.30;73.70;;;;;;5019284;28;89524;-38
2023/03/12 04:48:48;;;;;;;;;;;7.30;73.50;;;;;;5018282;28;87043;-39
2023/03/12 04:51:14;;;;;;;;;;;7.20;73.60;;;;;;5020955;28;88793;-38
2023/03/12 04:53:39;;;;;;;;;;;7.20;73.50;;;;;;5018578;28;90066;-38
2023/03/12 04:56:05;;;;;;;;;;;7.20;73.40;;;;;;5017518;28;87184;-38
2023/03/12 04:58:30;;;;;;;;;;;7.20;73.50;;;;;;5003544;28;88914;-38
2023/03/12 05:00:56;;;;;;;;;;;7.20;73.30;;;;;;5021135;28;89538;-38
2023/03/12 05:03:21;;;;;;;;;;;7.10;73.30;;;;;;5006277;28;89046;-38
2023/03/12 05:05:47;;;;;;;;;;;7.20;73.50;;;;;;5018666;28;88091;-38
2023/03/12 05:08:12;;;;;;;;;;;7.20;73.40;;;;;;5006154;28;87112;-38
2023/03/12 05:10:38;;;;;;;;;;;7.10;73.50;;;;;;5012412;28;88962;-38
2023/03/12 05:13:03;;;;;;;;;;;7.10;73.50;;;;;;5020297;28;89621;-37
2023/03/12 05:15:29;;;;;;;;;;;7.10;73.50;;;;;;5017236;28;87144;-38
2023/03/12 05:17:55;;;;;;;;;;;7.10;73.50;;;;;;5002916;28;88848;-38
2023/03/12 05:20:20;;;;;;;;;;;7.10;73.50;;;;;;5014644;28;89335;-38
2023/03/12 05:22:46;;;;;;;;;;;7.00;73.60;;;;;;5020435;28;86512;-38
2023/03/12 05:25:11;;;;;;;;;;;7.10;73.60;;;;;;5017521;28;89408;-38
2023/03/12 05:27:37;;;;;;;;;;;7.00;73.70;;;;;;5010128;28;87200;-38
2023/03/12 05:30:03;;;;;;;;;;;7.00;73.60;;;;;;5017746;28;88338;-38
2023/03/12 05:32:29;;;;;;;;;;;7.00;73.50;;;;;;5016044;28;90367;-39
2023/03/12 05:34:54;;;;;;;;;;;7.00;73.40;;;;;;5018489;28;87166;-38
2023/03/12 05:37:20;;;;;;;;;;;7.00;73.50;;;;;;5007227;28;88910;-38
2023/03/12 05:39:45;;;;;;;;;;;7.00;73.60;;;;;;5002133;28;89522;-38
2023/03/12 05:42:11;;;;;;;;;;;7.00;73.50;;;;;;5002618;28;87012;-38
2023/03/12 05:44:37;;;;;;;;;;;7.00;73.60;;;;;;5004950;28;88749;-38
2023/03/12 05:47:03;;;;;;;;;;;7.00;73.50;;;;;;5011815;28;87996;-39
2023/03/12 05:49:29;;;;;;;;;;;7.00;73.40;;;;;;5018442;28;87736;-38
2023/03/12 05:51:54;;;;;;;;;;;7.00;73.50;;;;;;5002589;28;87918;-39
2023/03/12 05:54:20;;;;;;;;;;;7.00;73.60;;;;;;5017924;28;88810;-38
2023/03/12 05:56:46;;;;;;;;;;;7.00;73.40;;;;;;5019074;28;89781;-38
2023/03/12 05:59:11;;;;;;;;;;;7.00;73.40;;;;;;5023475;28;89043;-38
2023/03/12 06:01:37;;;;;;;;;;;6.90;73.50;;;;;;5009215;28;87939;-38
2023/03/12 06:04:02;;;;;;;;;;;6.90;73.40;;;;;;5008258;28;88249;-38
2023/03/12 06:06:31;;;;;;;;;;;6.90;73.40;;;;;;5009308;28;87195;-39
2023/03/12 06:08:57;;;;;;;;;;;6.90;73.40;;;;;;5022253;28;88673;-39
2023/03/12 06:11:22;;;;;;;;;;;6.90;73.30;;;;;;5013366;28;89162;-38
2023/03/12 06:13:48;;;;;;;;;;;6.90;73.30;;;;;;5005495;28;87155;-39
2023/03/12 06:16:21;;;;;;;;;;;6.90;73.30;;;;;;5005794;28;88895;-38
2023/03/12 06:18:47;;;;;;;;;;;6.90;73.20;;;;;;5004702;28;89449;-38
2023/03/12 06:21:20;;;;;;;;;;;6.90;73.10;;;;;;5019174;28;87158;-38
2023/03/12 06:23:46;;;;;;;;;;;6.90;73.10;;;;;;5018205;28;87910;-38
2023/03/12 06:26:12;;;;;;;;;;;6.90;73.30;;;;;;5011592;28;87759;-38
2023/03/12 06:28:38;;;;;;;;;;;6.90;73.30;;;;;;5012332;28;88762;-39
2023/03/12 06:31:04;;;;;;;;;;;6.90;73.20;;;;;;5005480;28;87671;-38
2023/03/12 06:33:30;;;;;;;;;;;6.90;73.30;;;;;;5005368;28;87051;-39
2023/03/12 06:35:57;;;;;;;;;;;6.90;73.40;;;;;;5006094;28;89272;-38
2023/03/12 06:38:22;;;;;;;;;;;6.90;73.30;;;;;;5004819;28;89391;-38
2023/03/12 06:40:58;;;;;;;;;;;6.90;73.30;;;;;;5005136;28;87173;-38
2023/03/12 06:43:24;;;;;;;;;;;6.80;73.30;;;;;;5005049;28;88122;-39
2023/03/12 06:45:50;;;;;;;;;;;6.80;73.50;;;;;;5004848;28;87797;-38
2023/03/12 06:48:15;;;;;;;;;;;6.80;73.50;;;;;;5008358;28;87211;-39
2023/03/12 06:50:41;;;;;;;;;;;6.80;73.40;;;;;;5004622;28;89924;-39
2023/03/12 06:53:07;;;;;;;;;;;6.80;73.40;;;;;;5005306;28;87861;-38
2023/03/12 06:55:32;;;;;;;;;;;6.80;73.40;;;;;;5004718;28;88820;-38
2023/03/12 06:57:58;;;;;;;;;;;6.80;73.40;;;;;;5004522;28;89602;-38
2023/03/12 07:00:23;;;;;;;;;;;6.80;73.50;;;;;;5005261;28;86331;-38
2023/03/12 07:02:49;;;;;;;;;;;6.80;73.50;;;;;;5004778;28;88219;-38
2023/03/12 07:05:14;;;;;;;;;;;6.80;73.50;;;;;;5012304;28;88274;-38
2023/03/12 07:07:40;;;;;;;;;;;6.80;73.50;;;;;;5018192;28;88166;-38
2023/03/12 07:10:06;;;;;;;;;;;6.80;73.20;;;;;;5023483;28;89365;-38
2023/03/12 07:12:31;;;;;;;;;;;6.80;73.10;;;;;;5020499;28;87532;-38
2023/03/12 07:14:57;;;;;;;;;;;6.80;72.90;;;;;;5004383;28;88877;-38
2023/03/12 07:17:24;;;;;;;;;;;6.80;73.10;;;;;;5015164;28;89821;-38
2023/03/12 07:19:50;;;;;;;;;;;6.80;73.30;;;;;;5020195;28;88116;-38
2023/03/12 07:22:16;;;;;;;;;;;6.70;73.40;;;;;;5019225;28;88783;-38
2023/03/12 07:24:41;;;;;;;;;;;6.70;73.40;;;;;;5005223;28;89102;-38
2023/03/12 07:27:07;;;;;;;;;;;6.70;73.50;;;;;;5003568;28;87174;-38
2023/03/12 07:29:32;;;;;;;;;;;6.70;73.30;;;;;;5004805;28;87252;-38
2023/03/12 07:31:58;;;;;;;;;;;6.70;73.30;;;;;;5006530;28;90236;-38
2023/03/12 07:34:23;;;;;;;;;;;6.70;73.30;;;;;;5004202;28;89641;-38
2023/03/12 07:36:49;;;;;;;;;;;6.70;73.40;;;;;;5010142;28;88115;-38
2023/03/12 07:39:14;;;;;;;;;;;6.70;73.40;;;;;;5011009;28;87783;-38
2023/03/12 07:41:40;;;;;;;;;;;6.70;73.40;;;;;;5004297;28;88445;-38
2023/03/12 07:44:05;;;;;;;;;;;6.70;73.40;;;;;;5004021;28;90185;-38
2023/03/12 07:46:31;;;;;;;;;;;6.70;73.40;;;;;;5004612;28;87850;-38
2023/03/12 07:48:56;;;;;;;;;;;6.70;73.30;;;;;;5008461;28;88737;-38
2023/03/12 07:51:21;;;;;;;;;;;6.70;73.10;;;;;;5017822;28;89484;-38
2023/03/12 07:53:47;;;;;;;;;;;6.70;73.20;;;;;;5012457;28;87013;-39
2023/03/12 07:56:12;;;;;;;;;;;6.70;73.10;;;;;;5019967;28;88986;-38
2023/03/12 07:58:38;;;;;;;;;;;6.70;73.20;;;;;;5019910;28;87482;-38
2023/03/12 08:01:05;;;;;;;;;;;6.70;73.20;;;;;;5013106;28;88551;-38
2023/03/12 08:03:31;;;;;;;;;;;6.70;73.10;;;;;;5003677;28;89987;-38
2023/03/12 08:05:57;;;;;;;;;;;6.70;73.20;;;;;;5004318;28;88205;-38
2023/03/12 08:08:23;;;;;;;;;;;6.70;73.20;;;;;;5006332;28;88974;-38
2023/03/12 08:10:48;;;;;;;;;;;6.70;73.00;;;;;;5003645;28;88444;-38
2023/03/12 08:13:14;;;;;;;;;;;6.70;73.00;;;;;;5020412;28;86401;-38
2023/03/12 08:15:40;;;;;;;;;;;6.60;73.10;;;;;;5017035;28;89812;-38
2023/03/12 08:18:05;;;;;;;;;;;6.70;73.10;;;;;;5015788;28;87127;-38
2023/03/12 08:20:31;;;;;;;;;;;6.60;73.00;;;;;;5002853;28;88926;-38
2023/03/12 08:22:56;;;;;;;;;;;6.70;73.00;;;;;;5003211;28;89460;-38
2023/03/12 08:25:23;;;;;;;;;;;6.60;72.70;;;;;;5018092;28;87272;-37
2023/03/12 08:27:48;;;;;;;;;;;6.60;73.10;;;;;;5014674;28;88699;-38
2023/03/12 08:30:14;;;;;;;;;;;6.60;72.90;;;;;;5018456;28;88319;-38
2023/03/12 08:32:40;;;;;;;;;;;6.70;72.90;;;;;;5018404;28;87890;-38
2023/03/12 08:35:05;;;;;;;;;;;6.60;72.90;;;;;;5016674;28;89714;-38
2023/03/12 08:37:31;;;;;;;;;;;6.60;72.70;;;;;;5018247;28;86505;-38
2023/03/12 08:39:57;;;;;;;;;;;6.50;72.80;;;;;;5018501;28;88117;-38
2023/03/12 08:42:23;;;;;;;;;;;6.50;72.80;;;;;;5008583;28;88006;-38
2023/03/12 08:44:48;;;;;;;;;;;6.50;72.80;;;;;;5002615;28;88089;-37
2023/03/12 08:47:14;;;;;;;;;;;6.60;72.90;;;;;;5003200;28;89808;-38
2023/03/12 08:49:39;;;;;;;;;;;6.60;72.90;;;;;;5003283;28;88106;-39
2023/03/12 08:52:05;;;;;;;;;;;6.60;73.00;;;;;;5003322;28;87730;-39
2023/03/12 08:54:30;;;;;;;;;;;6.60;72.80;;;;;;5009921;28;88832;-38
2023/03/12 08:56:56;;;;;;;;;;;6.50;73.00;;;;;;5014183;28;89473;-38
2023/03/12 08:59:22;;;;;;;;;;;6.50;73.10;;;;;;5004182;28;89020;-38
2023/03/12 09:01:47;;;;;;;;;;;6.50;73.10;;;;;;5003547;28;89036;-38
2023/03/12 09:04:13;;;;;;;;;;;6.50;73.00;;;;;;5003230;28;87152;-38
2023/03/12 09:06:39;;;;;;;;;;;6.40;72.80;;;;;;5003299;28;88031;-38
2023/03/12 09:09:07;;;;;;;;;;;6.50;72.80;;;;;;5014639;28;89477;-37
2023/03/12 09:11:34;;;;;;;;;;;6.50;72.80;;;;;;5002962;28;87215;-38
2023/03/12 09:14:00;;;;;;;;;;;6.50;72.60;;;;;;5009263;28;88952;-38
2023/03/12 09:16:25;;;;;;;;;;;6.50;72.60;;;;;;5017016;28;88221;-38
2023/03/12 09:18:51;;;;;;;;;;;6.50;72.80;;;;;;5023521;28;87070;-38
2023/03/12 09:21:16;;;;;;;;;;;6.50;72.60;;;;;;5018156;28;90040;-38
2023/03/12 09:23:42;;;;;;;;;;;6.50;72.60;;;;;;5011808;28;87172;-38
2023/03/12 09:26:09;;;;;;;;;;;6.50;72.50;;;;;;5006350;28;88930;-37
2023/03/12 09:28:34;;;;;;;;;;;6.50;72.80;;;;;;5016295;28;89506;-38
2023/03/12 09:31:00;;;;;;;;;;;6.50;72.70;;;;;;5018013;28;87196;-38
2023/03/12 09:33:26;;;;;;;;;;;6.50;72.70;;;;;;5018135;28;88393;-37
2023/03/12 09:35:57;;;;;;;;;;;6.50;72.80;;;;;;5016757;28;90017;-37
2023/03/12 09:38:23;;;;;;;;;;;6.50;72.80;;;;;;5007163;28;87609;-37
2023/03/12 09:40:49;;;;;;;;;;;6.50;72.70;;;;;;5011691;28;87787;-38
2023/03/12 09:43:21;;;;;;;;;;;6.50;72.80;;;;;;5002936;28;87221;-38
2023/03/12 09:45:48;;;;;;;;;;;6.50;73.10;;;;;;5002482;28;88610;-38
2023/03/12 09:48:16;;;;;;;;;;;6.50;72.90;;;;;;5016239;28;89986;-39
2023/03/12 09:50:42;;;;;;;;;;;6.50;72.70;;;;;;5017633;28;86388;-38
2023/03/12 09:53:14;;;;;;;;;;;6.50;72.90;;;;;;5015047;28;87762;-38
2023/03/12 09:55:42;;;;;;;;;;;6.50;72.80;;;;;;5015942;28;89873;-37
2023/03/12 09:58:12;;;;;;;;;;;6.50;72.80;;;;;;5002431;28;88942;-37
2023/03/12 10:00:38;;;;;;;;;;;6.50;72.70;;;;;;5009560;28;89806;-38
2023/03/12 10:03:16;;;;;;;;;;;6.50;72.60;;;;;;5017213;28;87925;-38
2023/03/12 10:05:52;;;;;;;;;;;6.50;72.50;;;;;;5002455;28;88898;-38
2023/03/12 10:08:27;;;;;;;;;;;6.50;72.70;;;;;;5002252;28;88112;-38
2023/03/12 10:10:55;;;;;;;;;;;6.50;72.50;;;;;;5012716;28;87263;-38
2023/03/12 10:13:40;;;;;;;;;;;6.50;72.40;;;;;;5002022;28;87782;-38
2023/03/12 10:16:14;;;;;;;;;;;6.50;72.50;;;;;;5001934;28;89317;-38
2023/03/12 10:18:59;;;;;;;;;;;6.50;72.50;;;;;;5017489;28;87151;-38
2023/03/12 10:21:31;;;;;;;;;;;6.50;72.80;;;;;;5006781;28;88202;-38
2023/03/12 10:23:59;;;;;;;;;;;6.50;72.40;;;;;;5019393;28;90541;-38
2023/03/12 10:26:30;;;;;;;;;;;6.50;72.60;;;;;;5016775;28;89712;-37
2023/03/12 10:28:57;;;;;;;;;;;6.50;72.60;;;;;;5015127;28;88000;-37
2023/03/12 10:31:23;;;;;;;;;;;6.50;72.80;;;;;;5011977;28;87043;-37
2023/03/12 10:33:55;;;;;;;;;;;6.50;72.70;;;;;;5001997;28;89018;-38
2023/03/12 10:36:40;;;;;;;;;;;6.60;72.50;;;;;;5014277;28;89909;-38
2023/03/12 10:39:17;;;;;;;;;;;6.60;72.50;;;;;;5017735;28;88284;-37
2023/03/12 10:41:43;;;;;;;;;;;6.60;72.40;;;;;;5004691;28;88946;-37
2023/03/12 10:44:11;;;;;;;;;;;6.60;72.30;;;;;;5004543;28;88992;-38
2023/03/12 10:46:46;;;;;;;;;;;6.60;72.80;;;;;;5020411;28;86984;-37
2023/03/12 10:49:20;;;;;;;;;;;6.60;72.40;;;;;;5003792;28;90256;-38
2023/03/12 10:51:53;;;;;;;;;;;6.60;72.40;;;;;;5009571;28;87674;-38
2023/03/12 10:54:27;;;;;;;;;;;6.60;72.50;;;;;;5020055;28;87444;-37
2023/03/12 10:56:52;;;;;;;;;;;6.60;72.50;;;;;;5004986;28;88269;-38
2023/03/12 10:59:21;;;;;;;;;;;6.60;72.50;;;;;;5012143;28;87229;-37
2023/03/12 11:01:49;;;;;;;;;;;6.60;72.40;;;;;;5005353;28;89376;-38
2023/03/12 11:04:20;;;;;;;;;;;6.60;72.10;;;;;;5017555;28;89927;-37
2023/03/12 11:07:06;;;;;;;;;;;6.60;72.20;;;;;;5018433;28;86414;-38
2023/03/12 11:09:32;;;;;;;;;;;6.60;72.00;;;;;;4985567;28;88251;-38
2023/03/12 11:11:57;;;;;;;;;;;6.60;71.90;;;;;;5012858;28;87085;-37
2023/03/12 11:14:24;;;;;;;;;;;6.60;72.00;;;;;;5015655;28;89213;-38
2023/03/12 11:16:51;;;;;;;;;;;6.60;71.90;;;;;;5011875;28;89308;-37
2023/03/12 11:19:39;;;;;;;;;;;6.60;72.00;;;;;;5020946;28;87138;-37
2023/03/12 11:22:10;;;;;;;;;;;6.70;72.10;;;;;;5005136;28;87750;-38
2023/03/12 11:24:53;;;;;;;;;;;6.70;72.00;;;;;;5006331;28;89285;-37
2023/03/12 11:27:27;;;;;;;;;;;6.70;71.70;;;;;;5021741;28;87773;-38
2023/03/12 11:29:53;;;;;;;;;;;6.70;71.90;;;;;;5010758;28;89061;-37
2023/03/12 11:32:30;;;;;;;;;;;6.70;71.90;;;;;;5019085;28;89186;-38
2023/03/12 11:34:56;;;;;;;;;;;6.70;71.90;;;;;;5020089;28;87252;-38
2023/03/12 11:37:39;;;;;;;;;;;6.70;71.90;;;;;;5018389;28;88032;-37
2023/03/12 11:40:08;;;;;;;;;;;6.70;71.70;;;;;;5008619;28;89957;-37
2023/03/12 11:42:39;;;;;;;;;;;6.70;71.90;;;;;;5020026;28;89681;-37
2023/03/12 11:45:13;;;;;;;;;;;6.70;71.80;;;;;;5019653;28;87950;-37
2023/03/12 11:47:57;;;;;;;;;;;6.70;72.00;;;;;;5017558;28;87245;-37
2023/03/12 11:50:38;;;;;;;;;;;6.70;71.80;;;;;;5003930;28;89060;-37
2023/03/12 11:53:22;;;;;;;;;;;6.70;72.00;;;;;;5003866;28;88521;-37
2023/03/12 11:55:59;;;;;;;;;;;6.70;71.90;;;;;;5006999;28;87174;-37
2023/03/12 11:58:40;;;;;;;;;;;6.80;71.90;;;;;;5016453;28;87596;-38
2023/03/12 12:01:11;;;;;;;;;;;6.70;72.00;;;;;;5016740;28;87139;-38
2023/03/12 12:03:46;;;;;;;;;;;6.80;71.80;;;;;;5006029;28;87268;-37
2023/03/12 12:06:14;;;;;;;;;;;6.80;71.80;;;;;;5003204;28;88821;-37
2023/03/12 12:08:45;;;;;;;;;;;6.80;72.00;;;;;;5010639;28;87609;-37
2023/03/12 12:11:19;;;;;;;;;;;6.80;71.80;;;;;;5016126;28;87805;-37
2023/03/12 12:13:47;;;;;;;;;;;6.70;71.80;;;;;;5008374;28;89529;-37
2023/03/12 12:16:29;;;;;;;;;;;6.80;71.90;;;;;;5015837;28;87441;-38
2023/03/12 12:19:06;;;;;;;;;;;6.80;71.90;;;;;;5011556;28;88757;-37
2023/03/12 12:21:41;;;;;;;;;;;6.80;71.90;;;;;;5007904;28;87195;-37
2023/03/12 12:24:10;;;;;;;;;;;6.80;71.90;;;;;;5003865;28;87786;-38
2023/03/12 12:26:46;;;;;;;;;;;6.80;71.60;;;;;;5012202;28;89394;-38
2023/03/12 12:29:15;;;;;;;;;;;6.80;71.50;;;;;;5011489;28;87034;-38
2023/03/12 12:31:43;;;;;;;;;;;6.80;71.40;;;;;;5005012;28;88195;-38
2023/03/12 12:34:27;;;;;;;;;;;6.80;71.80;;;;;;5003317;28;89795;-37
2023/03/12 12:36:56;;;;;;;;;;;6.80;71.50;;;;;;5007983;28;87766;-37
2023/03/12 12:39:21;;;;;;;;;;;6.80;70.90;;;;;;5012342;28;88911;-37
2023/03/12 12:41:52;;;;;;;;;;;6.80;71.00;;;;;;5013809;28;88017;-37
2023/03/12 12:44:20;;;;;;;;;;;6.80;71.50;;;;;;5015441;28;88958;-37
2023/03/12 12:46:58;;;;;;;;;;;6.80;71.10;;;;;;5019233;28;90921;-37
2023/03/12 12:49:27;;;;;;;;;;;6.90;71.40;;;;;;5013865;28;87122;-37
2023/03/12 12:51:56;;;;;;;;;;;6.80;71.40;;;;;;5010997;28;87112;-37
2023/03/12 12:54:22;;;;;;;;;;;6.90;71.30;;;;;;5016546;28;89318;-38
2023/03/12 12:56:53;;;;;;;;;;;6.90;71.30;;;;;;5015824;28;88133;-38
2023/03/12 12:59:25;;;;;;;;;;;6.90;71.00;;;;;;5018810;28;89795;-37
2023/03/12 13:01:54;;;;;;;;;;;6.90;71.40;;;;;;5005719;28;89175;-37
2023/03/12 13:04:29;;;;;;;;;;;6.90;71.30;;;;;;5015541;28;89234;-37
2023/03/12 13:07:01;;;;;;;;;;;6.90;71.20;;;;;;5008240;28;89610;-38
2023/03/12 13:09:36;;;;;;;;;;;7.00;71.00;;;;;;5019835;28;87298;-38
2023/03/12 13:12:17;;;;;;;;;;;7.00;71.20;;;;;;5017633;28;89031;-38
2023/03/12 13:14:43;;;;;;;;;;;7.00;71.10;;;;;;5008481;28;88586;-38
2023/03/12 13:17:21;;;;;;;;;;;7.00;71.00;;;;;;5004262;28;87034;-38
2023/03/12 13:19:49;;;;;;;;;;;7.00;71.20;;;;;;5012769;28;87871;-37
2023/03/12 13:22:14;;;;;;;;;;;7.00;71.20;;;;;;5005115;28;90178;-38
2023/03/12 13:24:50;;;;;;;;;;;7.00;71.10;;;;;;5005966;28;88135;-37
2023/03/12 13:27:18;;;;;;;;;;;7.00;71.10;;;;;;5009399;28;90855;-37
2023/03/12 13:29:44;;;;;;;;;;;7.00;70.90;;;;;;5018711;28;87220;-38
2023/03/12 13:32:33;;;;;;;;;;;7.00;71.00;;;;;;5019044;28;88899;-38
2023/03/12 13:34:58;;;;;;;;;;;7.10;71.20;;;;;;5011379;28;88609;-38
2023/03/12 13:37:29;;;;;;;;;;;7.10;71.00;;;;;;5016462;28;87805;-37
2023/03/12 13:39:57;;;;;;;;;;;7.10;70.90;;;;;;5004402;28;87083;-38
2023/03/12 13:42:23;;;;;;;;;;;7.10;71.00;;;;;;5005522;28;89363;-38
2023/03/12 13:44:49;;;;;;;;;;;7.10;71.20;;;;;;5002131;28;87316;-38
2023/03/12 13:47:15;;;;;;;;;;;7.10;70.90;;;;;;5004071;28;89175;-37
2023/03/12 13:49:40;;;;;;;;;;;7.10;71.00;;;;;;5012815;28;87164;-37
2023/03/12 13:52:18;;;;;;;;;;;7.10;70.90;;;;;;5015408;28;87385;-37
2023/03/12 13:54:45;;;;;;;;;;;7.10;71.10;;;;;;5012982;28;89375;-38
2023/03/12 13:57:22;;;;;;;;;;;7.10;70.80;;;;;;5012311;28;87203;-37
2023/03/12 13:59:49;;;;;;;;;;;7.10;70.90;;;;;;5002304;28;87220;-37
2023/03/12 14:02:27;;;;;;;;;;;7.10;70.80;;;;;;5003235;28;89583;-37
2023/03/12 14:04:54;;;;;;;;;;;7.20;70.90;;;;;;5017249;28;86390;-37
2023/03/12 14:07:19;;;;;;;;;;;7.20;71.10;;;;;;5015306;28;87839;-38
2023/03/12 14:09:50;;;;;;;;;;;7.20;70.90;;;;;;5005783;28;89327;-37
2023/03/12 14:12:20;;;;;;;;;;;7.10;70.70;;;;;;5009548;28;88682;-38
2023/03/12 14:15:05;;;;;;;;;;;7.20;70.90;;;;;;5001867;28;89183;-37
2023/03/12 14:17:32;;;;;;;;;;;7.20;70.80;;;;;;5013079;28;87234;-38
2023/03/12 14:20:00;;;;;;;;;;;7.20;70.60;;;;;;5018644;28;88690;-38
2023/03/12 14:22:30;;;;;;;;;;;7.20;70.80;;;;;;5019415;28;89428;-37
2023/03/12 14:24:57;;;;;;;;;;;7.30;70.50;;;;;;5020090;28;87183;-37
2023/03/12 14:27:28;;;;;;;;;;;7.20;70.50;;;;;;5017046;28;88707;-37
2023/03/12 14:30:02;;;;;;;;;;;7.30;70.50;;;;;;5008385;28;89205;-37
2023/03/12 14:32:29;;;;;;;;;;;7.30;70.50;;;;;;5005842;28;87701;-37
2023/03/12 14:35:10;;;;;;;;;;;7.30;70.50;;;;;;5014308;28;89629;-38